Thursday, May 5, 2016, 6:25 AM EDT

KSBY, Salisbury-wicomico Cty Reg

Location: Salisbury, MD, United States Lat: 38.333
Local Time: 6:25 AM EDT (10:25 GMT) Lon: -75.5
Time Zone: US/Eastern Elev: 52 ft

Show me the last for .
Show Decoded

2016-05-05 05:54 METAR KSBY 050954Z 03008KT 10SM OVC007 09/08 A2963 RMK AO2 CIG 006V010 SLP035
                 T00940078 =
2016-05-05 04:54 METAR KSBY 050854Z AUTO 05011KT 10SM OVC007 09/08 A2962 RMK AO2 CIG 006V012
                 SLP033 T00940078 58020 =
2016-05-05 03:54 METAR KSBY 050754Z AUTO 04011KT 10SM OVC009 09/08 A2965 RMK AO2 SLP041 T00940078
                 =
2016-05-05 02:54 METAR KSBY 050654Z AUTO 04009KT 10SM OVC008 09/08 A2966 RMK AO2 CIG 007V011
                 SLP046 T00940083 =
2016-05-05 02:21 METAR KSBY 050621Z AUTO 06012KT 10SM OVC009 10/08 A2966 =
2016-05-05 01:54 METAR KSBY 050554Z AUTO 06012KT 10SM OVC010 10/08 A2968 RMK AO2 SLP054 T01000083
                 10117 20100 51001 =
2016-05-05 01:52 METAR KSBY 050552Z AUTO 07010KT 10SM OVC010 10/08 A2968 RMK AO2 =
2016-05-05 00:54 METAR KSBY 050454Z AUTO 04010KT 10SM OVC009 10/08 A2968 RMK AO2 SLP054 T01000083
                 401330100 =
2016-05-05 00:15 METAR KSBY 050415Z AUTO 06009KT 10SM OVC010 10/08 A2969 RMK AO2 T01000083 =
2016-05-04 23:54 METAR KSBY 050354Z AUTO 05011KT 10SM OVC009 10/09 A2968 RMK AO2 SLP052 T01000089
                 =
2016-05-04 23:21 METAR KSBY 050321Z AUTO 06009KT 8SM OVC009 10/09 A2969 RMK AO2 T01000089 =
2016-05-04 22:54 METAR KSBY 050254Z AUTO 05013KT 10SM OVC011 10/09 A2970 RMK AO2 SLP057 T01000089
                 50005 =
2016-05-04 22:16 METAR KSBY 050216Z 05012KT 10SM OVC011 11/09 A2970 RMK AO2 T01060089 =
2016-05-04 21:54 METAR KSBY 050154Z 05009G18KT 10SM OVC005 11/09 A2970 RMK AO2 CIG 004V008 SLP057
                 T01060094 =
2016-05-04 21:25 METAR KSBY 050125Z 04009KT 10SM OVC006 11/09 A2968 RMK AO2 T01060094 =
2016-05-04 21:04 METAR KSBY 050104Z 06009KT 9SM OVC004 11/10 A2968 RMK AO2 T01060100 =
2016-05-04 20:54 METAR KSBY 050054Z 06010KT 7SM OVC005 11/10 A2968 RMK AO2 SLP053 T01110100 =
2016-05-04 19:54 METAR KSBY 042354Z 03007KT 10SM OVC007 12/10 A2968 RMK AO2 SLP052 60001
                 T01170100 10133 20117 53010 =
2016-05-04 18:54 METAR KSBY 042254Z 05007KT 10SM OVC008 12/11 A2967 RMK AO2 CIG 007V012 SLP048
                 T01170106 =
2016-05-04 17:54 METAR KSBY 042154Z 04009KT 5SM BR BKN008 OVC013 12/11 A2964 RMK AO2 SLP038
                 T01170111 =
2016-05-04 16:54 METAR KSBY 042054Z 03009KT 3SM BR BKN006 BKN010 OVC016 12/11 A2965 RMK AO2 RAE14
                 SLP042 P0000 60001 T01220111 55005 =
2016-05-04 16:13 METAR KSBY 042013Z 02006KT 3SM -RA BR OVC005 13/12 A2965 RMK AO2 CIG 004V009
                 P0000 T01280117 =
2016-05-04 15:54 METAR KSBY 041954Z 01008KT 2SM -RA BR BKN006 OVC012 12/12 A2964 RMK AO2 RAB11
                 CIG 004V007 SLP039 P0001 T01220117 =
2016-05-04 15:13 METAR KSBY 041913Z 35006KT 2SM -RA BR OVC007 12/11 A2966 RMK AO2 RAB11 CIG
                 006V010 P0000 T01220111 =
2016-05-04 14:54 METAR KSBY 041854Z 05006KT 10SM OVC007 13/11 A2966 RMK AO2 SLP046 T01280111 =
2016-05-04 14:24 METAR KSBY 041824Z 04009KT 10SM OVC007 13/11 A2966 RMK AO2 T01330111 =
2016-05-04 14:07 METAR KSBY 041807Z 04007KT 10SM OVC010 13/11 A2967 RMK AO2 CIG 007V012 T01330111
                 =
2016-05-04 13:54 METAR KSBY 041754Z 02008KT 3SM BR OVC006 13/12 A2966 RMK AO2 RAE06B30E39 SLP047
                 P0000 60002 T01330117 10133 20106 58013 =
2016-05-04 13:05 METAR KSBY 041705Z 02009KT 6SM -RA BR BKN005 OVC013 13/12 A2967 RMK AO2 LTG DSNT
                 N AND NE CIG 004V010 P0000 T01280117 =
2016-05-04 12:54 METAR KSBY 041654Z 04005KT 2SM -RA BR BKN005 OVC010 12/12 A2968 RMK AO2 LTG DSNT
                 N RAB01E13B23 SLP051 P0000 T01220117 =
2016-05-04 12:36 METAR KSBY 041636Z 04008KT 1 3/4SM -RA BR BKN006 OVC010 12/12 A2968 RMK AO2 LTG
                 DSNT N RAB01E13B23 CIG 004V007 P0000 T01170117 =
2016-05-04 12:34 METAR KSBY 041634Z 04008KT 2SM -RA BR OVC004 12/12 A2969 RMK AO2 LTG DSNT N
                 RAB01E13B23 CIG 004V007 P0000 T01170117 =
2016-05-04 12:20 METAR KSBY 041620Z 35008KT 3SM BR OVC004 12/11 A2971 RMK AO2 LTG DSNT N RAB01E13
                 P0000 T01170111 =
2016-05-04 12:04 METAR KSBY 041604Z 04007KT 2SM -RA BR OVC004 12/12 A2970 RMK AO2 LTG DSNT N AND
                 NW RAB01 P0000 T01170117 =
2016-05-04 11:54 METAR KSBY 041554Z 04008KT 3SM BR OVC004 12/12 A2969 RMK AO2 LTG DSNT NW
                 RAB23E35 SLP057 P0000 T01170117 =
2016-05-04 11:15 METAR KSBY 041515Z 03006KT 2 1/2SM BR OVC003 12/12 A2970 RMK AO2 LTG DSNT N
                 T01220117 =
2016-05-04 10:54 METAR KSBY 041454Z 04008KT 5SM BR OVC003 12/12 A2970 RMK AO2 LTG DSNT N AND NW
                 SLP060 60002 T01220117 56007 =
2016-05-04 09:54 METAR KSBY 041354Z 05007KT 3SM BR OVC002 12/12 A2971 RMK AO2 RAB17E42 SLP061
                 P0002 T01170117 =
2016-05-04 08:54 METAR KSBY 041254Z 08006KT 1 1/2SM BR OVC003 11/11 A2972 RMK AO2 SLP066
                 T01110111 =
2016-05-04 07:54 METAR KSBY 041154Z 03007KT 9SM OVC004 11/11 A2971 RMK AO2 RAB1056E53 SLP062
                 P0002 60005 70018 T01060106 10111 20100 58002 =
2016-05-04 07:28 METAR KSBY 041128Z 03008KT 5SM RA BR OVC004 11/11 A2971 RMK AO2 RAB1056 P0001
                 T01060106 =
2016-05-04 06:54 METAR KSBY 041054Z 04006KT 7SM OVC005 11/10 A2973 RMK AO2 RAE24 SLP068 P0001
                 T01060100 =

Support USWX by starting your Amazon purchase here.